Time;durP1;ratioP1;P1;durP2;ratioP2;P2;SDS_P1;SDS_P2;PMS_P1;PMS_P2;Temp;Humidity;BMP_temperature;BMP_pressure;BME280_temperature;BME280_humidity;BME280_pressure;Samples;Min_cycle;Max_cycle;Signal;HPM_P1;HPM_P2
2021/08/04 00:01:14;;;;;;;11.00;5.45;;;15.30;87.40;;;;;;5094155;28;20020;-79
2021/08/04 00:03:39;;;;;;;13.98;7.05;;;15.30;87.30;;;;;;5094045;28;20429;-79
2021/08/04 00:06:05;;;;;;;10.25;5.53;;;15.30;87.40;;;;;;5093903;28;20065;-78
2021/08/04 00:08:30;;;;;;;10.45;5.70;;;15.30;87.30;;;;;;5095082;28;20381;-78
2021/08/04 00:10:57;;;;;;;9.30;4.20;;;15.20;87.30;;;;;;5094313;28;20447;-79
2021/08/04 00:13:22;;;;;;;8.38;4.82;;;15.30;87.00;;;;;;5094115;28;20028;-78
2021/08/04 00:15:48;;;;;;;9.23;5.43;;;15.30;86.90;;;;;;5094419;28;20472;-77
2021/08/04 00:18:14;;;;;;;11.73;6.80;;;15.20;87.30;;;;;;5105469;28;20016;-78
2021/08/04 00:20:40;;;;;;;8.43;4.40;;;15.30;87.50;;;;;;5089177;28;20024;-78
2021/08/04 00:23:06;;;;;;;12.27;6.25;;;15.30;87.50;;;;;;5094674;28;20558;-78
2021/08/04 00:25:32;;;;;;;7.90;4.85;;;15.30;87.70;;;;;;5097240;28;20270;-79
2021/08/04 00:27:58;;;;;;;10.20;5.32;;;15.30;87.80;;;;;;5103933;28;20056;-78
2021/08/04 00:30:23;;;;;;;8.48;4.70;;;15.30;87.70;;;;;;5111513;28;20022;-78
2021/08/04 00:32:51;;;;;;;10.50;6.05;;;15.20;87.60;;;;;;5102709;28;20028;-78
2021/08/04 00:35:16;;;;;;;9.43;4.82;;;15.20;87.80;;;;;;5095224;28;20039;-78
2021/08/04 00:37:42;;;;;;;9.80;6.35;;;15.20;88.10;;;;;;5094977;28;20028;-78
2021/08/04 00:40:08;;;;;;;9.05;5.68;;;15.20;88.40;;;;;;5094685;28;20031;-78
2021/08/04 00:42:34;;;;;;;9.48;6.57;;;15.20;88.40;;;;;;5093353;28;20020;-78
2021/08/04 00:45:00;;;;;;;9.55;5.93;;;15.10;88.50;;;;;;5096512;28;20024;-78
2021/08/04 00:47:25;;;;;;;9.10;5.38;;;15.10;88.40;;;;;;5102158;28;20077;-79
2021/08/04 00:49:51;;;;;;;11.10;5.70;;;15.10;88.50;;;;;;5102280;28;20020;-78
2021/08/04 00:52:17;;;;;;;8.95;5.70;;;15.10;88.70;;;;;;5101679;28;20020;-78
2021/08/04 00:54:44;;;;;;;8.10;4.43;;;15.10;88.50;;;;;;5095001;28;20426;-78
2021/08/04 00:57:09;;;;;;;8.55;4.78;;;15.10;88.20;;;;;;5093616;28;20024;-78
2021/08/04 00:59:36;;;;;;;9.45;5.43;;;15.10;88.30;;;;;;5093011;28;20425;-78
2021/08/04 01:02:10;;;;;;;7.32;5.05;;;15.10;88.10;;;;;;5096623;28;20115;-78
2021/08/04 01:04:45;;;;;;;7.40;4.53;;;15.10;88.20;;;;;;5094410;28;20059;-79
2021/08/04 01:07:22;;;;;;;7.68;4.40;;;15.10;88.20;;;;;;5092740;28;20047;-78
2021/08/04 01:09:52;;;;;;;10.85;6.35;;;15.00;88.10;;;;;;5093850;28;20024;-79
2021/08/04 01:12:26;;;;;;;7.78;4.30;;;15.00;88.30;;;;;;5092953;28;20024;-78
2021/08/04 01:14:57;;;;;;;11.50;6.55;;;15.00;88.00;;;;;;5092410;28;20111;-79
2021/08/04 01:17:23;;;;;;;8.65;4.95;;;15.00;88.20;;;;;;5092458;28;20020;-79
2021/08/04 01:20:16;;;;;;;6.55;3.63;;;15.00;87.90;;;;;;5094147;28;20357;-77
2021/08/04 01:22:50;;;;;;;6.38;3.50;;;14.90;87.60;;;;;;5092353;28;20380;-79
2021/08/04 01:25:17;;;;;;;8.13;5.05;;;14.90;88.30;;;;;;5092482;28;20024;-77
2021/08/04 01:27:50;;;;;;;9.32;4.55;;;14.90;88.00;;;;;;5092333;28;20080;-78
2021/08/04 01:30:17;;;;;;;6.03;3.42;;;15.00;88.10;;;;;;5092412;28;20024;-78
2021/08/04 01:32:43;;;;;;;7.90;4.50;;;14.90;87.70;;;;;;5092377;28;20071;-77
2021/08/04 01:35:10;;;;;;;8.10;4.50;;;15.00;87.60;;;;;;5091979;28;20444;-77
2021/08/04 01:37:37;;;;;;;7.90;4.93;;;14.90;87.30;;;;;;5092020;28;20020;-78
2021/08/04 01:40:05;;;;;;;8.65;5.53;;;14.90;87.40;;;;;;5093139;28;20035;-79
2021/08/04 01:42:37;;;;;;;9.93;5.85;;;14.90;87.90;;;;;;5091781;28;20024;-79
2021/08/04 01:45:04;;;;;;;7.60;5.45;;;14.90;88.60;;;;;;5092065;28;20099;-78
2021/08/04 01:47:31;;;;;;;7.70;5.28;;;14.90;89.00;;;;;;5091976;28;20031;-78
2021/08/04 01:49:58;;;;;;;10.77;6.22;;;14.90;89.40;;;;;;5091931;28;20047;-79
2021/08/04 01:52:24;;;;;;;7.03;4.43;;;14.80;89.50;;;;;;5091635;28;20475;-80
2021/08/04 01:54:51;;;;;;;8.23;5.28;;;14.90;89.50;;;;;;5091872;28;20437;-77
2021/08/04 01:57:17;;;;;;;9.55;6.03;;;14.90;89.90;;;;;;5092253;28;20028;-78
2021/08/04 01:59:44;;;;;;;10.38;6.93;;;14.80;89.80;;;;;;5091768;28;20021;-79
2021/08/04 02:02:16;;;;;;;9.57;6.70;;;14.80;90.00;;;;;;5093723;28;20582;-79
2021/08/04 02:04:42;;;;;;;10.18;5.97;;;14.80;90.00;;;;;;5092207;28;20395;-78
2021/08/04 02:07:14;;;;;;;9.50;5.47;;;14.80;90.10;;;;;;5093785;28;20028;-80
2021/08/04 02:09:56;;;;;;;10.00;6.40;;;14.80;90.20;;;;;;5092566;28;20024;-78
2021/08/04 02:12:22;;;;;;;8.75;6.00;;;14.70;90.10;;;;;;5092733;28;20047;-79
2021/08/04 02:15:00;;;;;;;9.90;5.53;;;14.70;90.00;;;;;;5093373;28;20036;-79
2021/08/04 02:17:37;;;;;;;10.15;5.47;;;14.70;90.00;;;;;;5102945;28;20081;-78
2021/08/04 02:20:12;;;;;;;6.82;4.65;;;14.70;90.10;;;;;;5108687;28;20020;-80
2021/08/04 02:22:49;;;;;;;12.63;7.25;;;14.70;90.30;;;;;;5107769;28;20081;-79
2021/08/04 02:25:20;;;;;;;9.85;6.00;;;14.70;90.40;;;;;;5095806;28;20024;-79
2021/08/04 02:27:48;;;;;;;11.20;6.82;;;14.70;90.50;;;;;;5092126;28;20012;-80
2021/08/04 02:30:16;;;;;;;10.18;6.18;;;14.70;90.50;;;;;;5091432;28;20460;-79
2021/08/04 02:32:42;;;;;;;10.40;5.40;;;14.70;90.50;;;;;;5091095;28;20060;-78
2021/08/04 02:35:09;;;;;;;11.32;7.32;;;14.60;90.60;;;;;;5091332;28;20086;-78
2021/08/04 02:37:35;;;;;;;12.80;7.18;;;14.60;90.70;;;;;;5091089;28;20019;-78
2021/08/04 02:40:02;;;;;;;11.82;7.30;;;14.60;90.60;;;;;;5091738;28;20024;-79
2021/08/04 02:42:28;;;;;;;10.85;7.70;;;14.60;90.70;;;;;;5093143;28;20357;-78
2021/08/04 02:44:54;;;;;;;9.60;7.38;;;14.60;90.70;;;;;;5092316;28;20464;-78
2021/08/04 02:47:21;;;;;;;8.85;5.47;;;14.50;90.70;;;;;;5090924;28;20016;-78
2021/08/04 02:49:47;;;;;;;10.00;6.93;;;14.50;90.80;;;;;;5090803;28;20404;-78
2021/08/04 02:52:17;;;;;;;12.20;5.53;;;14.50;90.90;;;;;;5093801;28;20028;-78
2021/08/04 02:54:44;;;;;;;8.90;6.22;;;14.50;90.90;;;;;;5094800;28;20035;-77
2021/08/04 02:57:10;;;;;;;11.52;6.18;;;14.50;91.00;;;;;;5094915;28;20024;-77
2021/08/04 02:59:36;;;;;;;11.02;6.82;;;14.50;91.00;;;;;;5094685;28;20025;-77
2021/08/04 03:02:02;;;;;;;10.68;7.45;;;14.40;90.90;;;;;;5094668;28;20516;-76
2021/08/04 03:04:27;;;;;;;8.98;6.13;;;14.40;91.00;;;;;;5094606;28;20036;-78
2021/08/04 03:06:53;;;;;;;8.48;6.55;;;14.40;91.00;;;;;;5095148;28;20032;-77
2021/08/04 03:09:19;;;;;;;13.05;7.45;;;14.40;91.10;;;;;;5094457;28;20449;-77
2021/08/04 03:11:44;;;;;;;8.40;6.22;;;14.40;91.00;;;;;;5094645;28;20183;-78
2021/08/04 03:14:10;;;;;;;8.13;5.95;;;14.40;91.10;;;;;;5094680;28;20111;-77
2021/08/04 03:16:35;;;;;;;10.10;5.43;;;14.30;91.20;;;;;;5094460;28;20372;-77
2021/08/04 03:19:01;;;;;;;9.25;5.50;;;14.40;91.20;;;;;;5094647;28;20024;-77
2021/08/04 03:21:27;;;;;;;8.98;6.07;;;14.40;91.20;;;;;;5094381;28;20067;-78
2021/08/04 03:23:52;;;;;;;8.88;6.47;;;14.40;91.20;;;;;;5094735;28;20379;-77
2021/08/04 03:26:18;;;;;;;7.78;5.68;;;14.40;91.10;;;;;;5097054;28;20528;-77
2021/08/04 03:28:43;;;;;;;8.65;5.63;;;14.40;90.90;;;;;;5100115;28;20024;-77
2021/08/04 03:31:09;;;;;;;10.93;7.30;;;14.40;91.00;;;;;;5104418;28;20035;-76
2021/08/04 03:33:35;;;;;;;9.05;6.30;;;14.50;91.10;;;;;;5101263;28;20024;-78
2021/08/04 03:36:00;;;;;;;9.55;5.78;;;14.50;91.10;;;;;;5098104;28;20024;-77
2021/08/04 03:38:26;;;;;;;11.55;7.28;;;14.40;91.10;;;;;;5094194;28;20024;-77
2021/08/04 03:40:51;;;;;;;12.82;7.38;;;14.50;91.10;;;;;;5093438;28;20027;-77
2021/08/04 03:43:17;;;;;;;10.23;6.80;;;14.40;91.10;;;;;;5094035;28;20097;-77
2021/08/04 03:45:42;;;;;;;12.30;8.13;;;14.40;91.00;;;;;;5093547;28;20368;-77
2021/08/04 03:48:08;;;;;;;8.18;5.93;;;14.40;91.00;;;;;;5094018;28;20066;-77
2021/08/04 03:50:33;;;;;;;9.27;5.35;;;14.40;91.10;;;;;;5095235;28;20520;-77
2021/08/04 03:52:59;;;;;;;8.80;5.22;;;14.40;91.10;;;;;;5093907;28;20028;-77
2021/08/04 03:55:25;;;;;;;8.90;5.75;;;14.40;91.10;;;;;;5093842;28;20127;-77
2021/08/04 03:57:50;;;;;;;7.65;4.78;;;14.40;91.10;;;;;;5093792;28;20020;-77
2021/08/04 04:00:16;;;;;;;9.25;5.45;;;14.40;91.10;;;;;;5093913;28;20020;-76
2021/08/04 04:02:42;;;;;;;9.15;5.65;;;14.40;91.10;;;;;;5093693;28;20043;-77
2021/08/04 04:05:08;;;;;;;9.07;6.00;;;14.40;91.10;;;;;;5094683;28;20560;-76
2021/08/04 04:07:34;;;;;;;11.88;7.80;;;14.40;91.10;;;;;;5105510;28;20020;-75
2021/08/04 04:10:00;;;;;;;12.57;7.22;;;14.30;91.00;;;;;;5107924;28;20111;-76
2021/08/04 04:12:27;;;;;;;9.00;6.60;;;14.40;91.00;;;;;;5097702;28;20503;-76
2021/08/04 04:14:52;;;;;;;9.45;6.43;;;14.30;91.00;;;;;;5094754;28;20476;-77
2021/08/04 04:17:18;;;;;;;10.52;5.88;;;14.30;91.20;;;;;;5094210;28;20073;-77
2021/08/04 04:19:43;;;;;;;8.88;5.57;;;14.20;91.40;;;;;;5093715;28;20039;-77
2021/08/04 04:22:09;;;;;;;10.07;6.45;;;14.20;91.40;;;;;;5094391;28;20024;-77
2021/08/04 04:24:35;;;;;;;11.27;7.75;;;14.30;91.50;;;;;;5094776;28;20028;-77
2021/08/04 04:27:00;;;;;;;14.02;9.07;;;14.30;91.40;;;;;;5093855;28;20074;-77
2021/08/04 04:29:26;;;;;;;12.30;7.40;;;14.30;91.40;;;;;;5101633;28;20004;-77
2021/08/04 04:31:52;;;;;;;13.43;7.93;;;14.20;91.30;;;;;;5109846;28;20028;-78
2021/08/04 04:34:17;;;;;;;9.90;7.68;;;14.30;91.30;;;;;;5094752;28;20119;-77
2021/08/04 04:36:43;;;;;;;8.77;5.80;;;14.30;91.30;;;;;;5093207;28;20107;-76
2021/08/04 04:39:08;;;;;;;11.60;8.40;;;14.30;91.30;;;;;;5092883;28;20020;-76
2021/08/04 04:41:34;;;;;;;9.15;6.88;;;14.30;91.30;;;;;;5092943;28;20073;-76
2021/08/04 04:44:00;;;;;;;10.77;7.65;;;14.30;91.30;;;;;;5093090;28;20063;-76
2021/08/04 04:46:26;;;;;;;10.98;7.88;;;14.30;91.30;;;;;;5094103;28;20041;-76
2021/08/04 04:48:52;;;;;;;9.13;6.32;;;14.40;91.20;;;;;;5092740;28;20050;-76
2021/08/04 04:51:17;;;;;;;13.00;8.57;;;14.40;91.20;;;;;;5092911;28;20063;-76
2021/08/04 04:53:43;;;;;;;9.65;7.07;;;14.40;91.20;;;;;;5092716;28;20024;-76
2021/08/04 04:56:08;;;;;;;15.32;8.50;;;14.40;91.10;;;;;;5092750;28;20548;-76
2021/08/04 04:58:34;;;;;;;13.07;8.70;;;14.40;91.00;;;;;;5092567;28;20472;-77
2021/08/04 05:00:59;;;;;;;12.27;8.55;;;14.50;91.00;;;;;;5092760;28;20493;-75
2021/08/04 05:03:26;;;;;;;10.63;7.90;;;14.50;90.90;;;;;;5092573;28;20039;-75
2021/08/04 05:05:51;;;;;;;11.88;7.00;;;14.50;90.90;;;;;;5092298;28;20302;-76
2021/08/04 05:08:18;;;;;;;10.85;6.82;;;14.50;90.90;;;;;;5092540;28;20023;-76
2021/08/04 05:10:44;;;;;;;5.60;3.30;;;14.60;90.80;;;;;;5093769;28;20024;-76
2021/08/04 05:13:09;;;;;;;9.20;4.40;;;14.70;88.90;;;;;;5092527;28;20020;-76
2021/08/04 05:15:35;;;;;;;12.30;7.70;;;14.70;88.70;;;;;;5093071;28;20069;-77
2021/08/04 05:18:00;;;;;;;10.43;7.68;;;14.80;89.70;;;;;;5094342;28;20371;-76
2021/08/04 05:20:26;;;;;;;12.48;7.90;;;14.90;90.00;;;;;;5093696;28;20465;-75
2021/08/04 05:22:52;;;;;;;13.45;7.97;;;14.90;90.20;;;;;;5094442;28;20016;-76
2021/08/04 05:25:17;;;;;;;9.93;6.82;;;15.00;90.10;;;;;;5093689;28;20107;-75
2021/08/04 05:27:43;;;;;;;9.13;5.65;;;15.00;90.10;;;;;;5092697;28;20056;-77
2021/08/04 05:30:09;;;;;;;7.95;6.25;;;15.10;90.10;;;;;;5093001;28;20468;-75
2021/08/04 05:32:35;;;;;;;9.90;6.97;;;15.20;90.20;;;;;;5093314;28;20024;-76
2021/08/04 05:35:00;;;;;;;8.80;6.70;;;15.30;90.20;;;;;;5093821;28;20029;-76
2021/08/04 05:37:26;;;;;;;10.27;6.82;;;15.40;89.50;;;;;;5093454;28;20020;-77
2021/08/04 05:39:52;;;;;;;9.90;6.63;;;15.50;89.40;;;;;;5091683;28;20031;-76
2021/08/04 05:42:17;;;;;;;12.43;7.88;;;15.60;89.30;;;;;;5092103;28;20027;-77
2021/08/04 05:44:43;;;;;;;10.10;6.78;;;15.60;89.00;;;;;;5093165;28;20060;-76
2021/08/04 05:47:09;;;;;;;9.80;8.02;;;15.70;88.90;;;;;;5092308;28;20019;-76
2021/08/04 05:49:34;;;;;;;9.27;6.40;;;15.80;88.70;;;;;;5092390;28;20027;-77
2021/08/04 05:52:01;;;;;;;8.88;6.97;;;15.90;88.70;;;;;;5092193;28;20069;-76
2021/08/04 05:54:26;;;;;;;10.30;7.13;;;16.00;88.50;;;;;;5093692;28;20024;-76
2021/08/04 05:56:52;;;;;;;11.07;7.43;;;16.10;88.20;;;;;;5097961;28;20020;-76
2021/08/04 05:59:17;;;;;;;8.32;5.72;;;16.10;88.00;;;;;;5103217;28;20103;-75
2021/08/04 06:01:43;;;;;;;7.82;6.00;;;16.20;87.20;;;;;;5106513;28;20020;-76
2021/08/04 06:04:08;;;;;;;10.10;7.10;;;16.30;87.30;;;;;;5097151;28;20460;-76
2021/08/04 06:06:34;;;;;;;7.07;5.35;;;16.40;87.30;;;;;;5092725;28;20118;-77
2021/08/04 06:09:00;;;;;;;8.27;5.95;;;16.40;86.80;;;;;;5092878;28;20509;-76
2021/08/04 06:11:25;;;;;;;10.18;6.72;;;16.50;86.60;;;;;;5098428;28;20055;-76
2021/08/04 06:13:51;;;;;;;9.57;7.00;;;16.60;86.90;;;;;;5101444;28;20020;-77
2021/08/04 06:16:17;;;;;;;12.05;7.20;;;16.70;86.80;;;;;;5096813;28;20357;-77
2021/08/04 06:18:42;;;;;;;11.32;6.10;;;16.80;86.60;;;;;;5095345;28;20111;-76
2021/08/04 06:21:08;;;;;;;10.23;6.75;;;16.90;86.60;;;;;;5092291;28;20077;-77
2021/08/04 06:23:34;;;;;;;9.05;6.65;;;17.00;86.10;;;;;;5093228;28;20577;-76
2021/08/04 06:26:00;;;;;;;11.95;7.38;;;17.00;85.70;;;;;;5092142;28;20020;-75
2021/08/04 06:28:26;;;;;;;9.57;7.50;;;17.10;85.20;;;;;;5095906;28;20146;-76
2021/08/04 06:30:51;;;;;;;9.35;6.10;;;17.20;85.20;;;;;;5095557;28;20016;-76
2021/08/04 06:33:17;;;;;;;9.77;7.20;;;17.30;85.00;;;;;;5096743;28;20372;-77
2021/08/04 06:35:43;;;;;;;8.85;6.93;;;17.40;84.60;;;;;;5104001;28;20165;-76
2021/08/04 06:38:08;;;;;;;9.00;6.72;;;17.50;84.40;;;;;;5108223;28;20035;-76
2021/08/04 06:40:34;;;;;;;8.25;5.93;;;17.60;84.00;;;;;;5095493;28;20031;-77
2021/08/04 06:42:59;;;;;;;9.73;6.38;;;17.60;83.60;;;;;;5096388;28;20539;-78
2021/08/04 06:45:25;;;;;;;11.05;7.22;;;17.80;83.20;;;;;;5095027;28;20115;-79
2021/08/04 06:47:51;;;;;;;11.10;7.53;;;17.90;83.20;;;;;;5095219;28;20490;-78
2021/08/04 06:50:17;;;;;;;7.45;4.30;;;18.00;82.30;;;;;;5096299;28;20472;-76
2021/08/04 06:52:42;;;;;;;9.50;6.55;;;18.10;80.70;;;;;;5094630;28;20024;-77
2021/08/04 06:55:08;;;;;;;10.25;6.63;;;18.30;82.00;;;;;;5095100;28;20044;-77
2021/08/04 06:57:34;;;;;;;10.13;6.78;;;18.40;81.40;;;;;;5095240;28;20031;-78
2021/08/04 07:00:03;;;;;;;9.00;6.55;;;18.50;80.90;;;;;;5099481;28;20023;-77
2021/08/04 07:03:07;;;;;;;8.15;5.40;;;18.60;80.60;;;;;;5103468;28;20368;-77
2021/08/04 07:05:33;;;;;;;8.80;6.43;;;18.80;80.00;;;;;;5095849;28;20111;-77
2021/08/04 07:07:59;;;;;;;10.43;7.60;;;18.90;79.60;;;;;;5094508;28;20032;-78
2021/08/04 07:10:25;;;;;;;10.65;6.72;;;19.00;76.70;;;;;;5094861;28;20016;-77
2021/08/04 07:12:50;;;;;;;9.02;6.60;;;19.10;76.10;;;;;;5095559;28;20072;-77
2021/08/04 07:15:16;;;;;;;8.88;4.47;;;19.20;77.40;;;;;;5094784;28;20028;-77
2021/08/04 07:17:49;;;;;;;9.30;5.85;;;19.30;75.70;;;;;;5095777;28;20024;-76
2021/08/04 07:20:17;;;;;;;6.25;4.47;;;19.40;76.50;;;;;;5095221;28;20115;-76
2021/08/04 07:22:43;;;;;;;10.43;6.47;;;19.40;75.30;;;;;;5095417;28;20101;-77
2021/08/04 07:25:11;;;;;;;7.57;5.45;;;19.50;76.10;;;;;;5095440;28;20476;-78
2021/08/04 07:27:37;;;;;;;8.38;5.88;;;19.50;75.30;;;;;;5095105;28;20046;-79
2021/08/04 07:30:09;;;;;;;8.82;5.35;;;19.70;75.60;;;;;;5094480;28;20028;-78
2021/08/04 07:32:36;;;;;;;10.05;5.13;;;19.80;75.00;;;;;;5094421;28;20101;-79
2021/08/04 07:35:02;;;;;;;8.18;5.22;;;20.00;74.50;;;;;;5094158;28;20495;-76
2021/08/04 07:37:28;;;;;;;9.65;6.40;;;20.20;73.50;;;;;;5094640;28;20024;-77
2021/08/04 07:39:55;;;;;;;9.02;6.45;;;20.30;72.80;;;;;;5094518;28;20024;-76
2021/08/04 07:42:21;;;;;;;9.88;6.82;;;20.40;72.30;;;;;;5098924;28;20020;-79
2021/08/04 07:44:47;;;;;;;11.02;6.00;;;20.30;71.30;;;;;;5097210;28;20565;-77
2021/08/04 07:47:13;;;;;;;10.48;7.90;;;20.30;71.40;;;;;;5096892;28;20031;-76
2021/08/04 07:49:38;;;;;;;9.15;6.78;;;20.40;72.50;;;;;;5104050;28;20028;-76
2021/08/04 07:52:04;;;;;;;7.85;4.93;;;20.50;72.70;;;;;;5110810;28;20016;-77
2021/08/04 07:54:30;;;;;;;7.93;5.60;;;20.60;72.30;;;;;;5101408;28;20024;-78
2021/08/04 07:56:55;;;;;;;6.28;3.50;;;20.50;72.50;;;;;;5094341;28;20024;-78
2021/08/04 07:59:21;;;;;;;9.30;6.85;;;20.50;70.40;;;;;;5094111;28;20020;-78
2021/08/04 08:01:46;;;;;;;9.23;6.57;;;20.50;70.80;;;;;;5093915;28;20485;-78
2021/08/04 08:04:12;;;;;;;8.15;5.90;;;20.50;71.10;;;;;;5094110;28;20023;-78
2021/08/04 08:06:38;;;;;;;7.07;5.00;;;20.60;71.50;;;;;;5095045;28;20103;-78
2021/08/04 08:09:03;;;;;;;9.75;5.68;;;20.80;70.20;;;;;;5094322;28;20051;-78
2021/08/04 08:11:29;;;;;;;6.93;5.60;;;21.00;69.80;;;;;;5095636;28;20066;-77
2021/08/04 08:13:54;;;;;;;7.63;5.72;;;21.10;69.20;;;;;;5093799;28;20483;-77
2021/08/04 08:16:20;;;;;;;5.07;3.00;;;21.20;68.80;;;;;;5093834;28;20465;-77
2021/08/04 08:18:46;;;;;;;7.22;3.03;;;21.30;68.00;;;;;;5095123;28;20020;-77
2021/08/04 08:21:11;;;;;;;5.78;3.10;;;21.50;67.30;;;;;;5093713;28;20028;-77
2021/08/04 08:23:37;;;;;;;7.60;4.47;;;21.50;68.00;;;;;;5093785;28;20024;-77
2021/08/04 08:26:03;;;;;;;6.18;4.22;;;21.60;68.00;;;;;;5093599;28;20425;-78
2021/08/04 08:28:28;;;;;;;7.53;5.10;;;21.80;68.40;;;;;;5094785;28;20024;-77
2021/08/04 08:30:54;;;;;;;6.85;4.03;;;22.00;67.80;;;;;;5093454;28;20023;-76
2021/08/04 08:33:19;;;;;;;8.77;4.88;;;22.20;67.90;;;;;;5095004;28;20024;-77
2021/08/04 08:35:45;;;;;;;8.07;5.93;;;22.30;66.90;;;;;;5094042;28;20495;-77
2021/08/04 08:38:11;;;;;;;6.20;4.30;;;22.40;65.80;;;;;;5096996;28;20487;-77
2021/08/04 08:40:36;;;;;;;6.18;4.10;;;22.40;65.50;;;;;;5102914;28;20032;-77
2021/08/04 08:43:02;;;;;;;5.45;3.55;;;22.50;64.90;;;;;;5100407;28;20028;-76
2021/08/04 08:45:29;;;;;;;6.50;3.60;;;22.60;65.00;;;;;;5094352;28;20031;-78
2021/08/04 08:47:56;;;;;;;5.93;3.58;;;22.80;64.40;;;;;;5094328;28;20016;-77
2021/08/04 08:50:25;;;;;;;6.13;2.97;;;22.90;64.20;;;;;;5092974;28;20042;-77
2021/08/04 08:52:52;;;;;;;5.28;2.55;;;23.10;63.60;;;;;;5095673;28;20012;-77
2021/08/04 08:55:18;;;;;;;6.35;3.42;;;23.10;62.30;;;;;;5097910;28;20189;-76
2021/08/04 08:57:43;;;;;;;8.43;3.08;;;23.10;62.00;;;;;;5098057;28;20049;-78
2021/08/04 09:00:10;;;;;;;5.07;2.97;;;23.10;62.30;;;;;;5096877;28;20039;-76
2021/08/04 09:02:36;;;;;;;6.97;3.83;;;23.10;62.40;;;;;;5093166;28;20111;-79
2021/08/04 09:05:05;;;;;;;8.40;3.83;;;23.20;62.20;;;;;;5092312;28;20111;-78
2021/08/04 09:07:36;;;;;;;5.35;2.50;;;23.40;62.90;;;;;;5092498;28;20024;-77
2021/08/04 09:10:25;;;;;;;5.28;2.65;;;23.70;61.60;;;;;;5093935;28;20020;-77
2021/08/04 09:12:52;;;;;;;4.63;2.72;;;23.70;61.20;;;;;;5092509;28;20024;-77
2021/08/04 09:15:23;;;;;;;5.50;2.47;;;23.90;62.10;;;;;;5092860;28;20066;-76
2021/08/04 09:18:08;;;;;;;6.32;3.45;;;24.00;61.20;;;;;;5093706;28;20346;-78
2021/08/04 09:20:53;;;;;;;4.85;2.08;;;24.30;60.60;;;;;;5093212;28;20111;-78
2021/08/04 09:23:28;;;;;;;3.53;1.50;;;24.50;60.50;;;;;;5092639;28;20095;-78
2021/08/04 09:26:17;;;;;;;5.43;2.38;;;24.70;60.20;;;;;;5092163;28;20052;-78
2021/08/04 09:29:04;;;;;;;4.85;3.05;;;24.80;59.50;;;;;;5092567;28;20020;-78
2021/08/04 09:31:48;;;;;;;4.55;2.65;;;24.90;58.40;;;;;;5092340;28;20082;-78
2021/08/04 09:34:34;;;;;;;2.95;1.67;;;25.00;56.10;;;;;;5092263;28;20032;-78
2021/08/04 09:37:07;;;;;;;5.90;2.55;;;25.20;57.80;;;;;;5094127;28;20467;-77
2021/08/04 09:39:34;;;;;;;4.32;1.83;;;25.20;56.90;;;;;;5103086;28;20020;-76
2021/08/04 09:42:00;;;;;;;4.28;2.10;;;25.20;57.90;;;;;;5112619;28;20027;-78
2021/08/04 09:44:26;;;;;;;3.38;1.55;;;25.30;56.90;;;;;;5103787;28;20020;-78
2021/08/04 09:47:09;;;;;;;2.88;1.48;;;25.30;56.60;;;;;;5093512;28;20470;-77
2021/08/04 09:49:35;;;;;;;6.88;2.60;;;25.50;58.40;;;;;;5092713;28;20027;-77
2021/08/04 09:52:08;;;;;;;2.60;1.50;;;25.70;55.50;;;;;;5093647;28;20019;-78
2021/08/04 09:54:41;;;;;;;2.40;1.48;;;25.80;57.30;;;;;;5092158;28;20114;-78
2021/08/04 09:57:08;;;;;;;3.58;1.60;;;25.90;57.40;;;;;;5093311;28;20020;-77
2021/08/04 09:59:34;;;;;;;4.35;1.40;;;25.90;58.00;;;;;;5093584;28;20162;-79
2021/08/04 10:02:00;;;;;;;3.92;1.88;;;25.90;60.30;;;;;;5091782;28;20070;-78
2021/08/04 10:04:26;;;;;;;3.05;1.75;;;26.00;57.40;;;;;;5093756;28;20066;-78
2021/08/04 10:07:09;;;;;;;5.25;2.42;;;26.10;57.80;;;;;;5091798;28;20468;-77
2021/08/04 10:09:36;;;;;;;6.22;2.03;;;26.00;51.40;;;;;;5092140;28;20338;-78
2021/08/04 10:12:02;;;;;;;4.03;1.58;;;26.00;52.70;;;;;;5091794;28;20106;-78
2021/08/04 10:14:28;;;;;;;5.20;1.85;;;26.20;59.00;;;;;;5091593;28;20024;-78
2021/08/04 10:16:54;;;;;;;5.45;1.90;;;26.10;54.20;;;;;;5092489;28;20027;-78
2021/08/04 10:19:22;;;;;;;7.57;1.90;;;26.10;53.40;;;;;;5092379;28;20109;-78
2021/08/04 10:21:51;;;;;;;4.43;1.80;;;26.20;56.30;;;;;;5091780;28;20399;-79
2021/08/04 10:24:18;;;;;;;5.10;1.90;;;26.50;59.20;;;;;;5091878;28;20020;-79
2021/08/04 10:26:43;;;;;;;8.18;2.58;;;26.70;57.10;;;;;;5091552;28;20046;-79
2021/08/04 10:29:10;;;;;;;3.38;1.58;;;26.70;47.70;;;;;;5091538;28;20020;-79
2021/08/04 10:31:37;;;;;;;2.85;1.30;;;26.60;58.30;;;;;;5091547;28;20031;-78
2021/08/04 10:34:04;;;;;;;4.53;2.45;;;26.50;59.80;;;;;;5091237;28;20134;-78
2021/08/04 10:36:33;;;;;;;4.22;1.70;;;26.60;55.50;;;;;;5091743;28;20071;-78
2021/08/04 10:39:05;;;;;;;3.20;1.60;;;26.40;55.90;;;;;;5091490;28;20031;-79
2021/08/04 10:41:31;;;;;;;2.90;1.42;;;26.30;59.90;;;;;;5092504;28;20020;-79
2021/08/04 10:44:02;;;;;;;6.45;1.73;;;26.20;54.20;;;;;;5100027;28;20021;-78
2021/08/04 10:46:28;;;;;;;4.35;1.70;;;26.10;59.10;;;;;;5103381;28;20016;-79
2021/08/04 10:49:18;;;;;;;7.68;2.55;;;26.00;56.70;;;;;;5091273;28;20524;-79
2021/08/04 10:52:03;;;;;;;;;;;25.90;57.00;;;;;;5094063;28;20020;-79
2021/08/04 10:54:32;;;;;;;5.10;2.05;;;25.80;58.20;;;;;;5094492;28;19904;-79
2021/08/04 10:56:57;;;;;;;5.55;1.80;;;25.90;61.90;;;;;;5091383;28;20449;-79
2021/08/04 10:59:31;;;;;;;3.75;1.50;;;26.10;59.10;;;;;;5091516;28;20028;-80
2021/08/04 11:02:02;;;;;;;3.45;1.60;;;26.50;59.10;;;;;;5091244;28;20044;-80
2021/08/04 11:04:28;;;;;;;2.63;1.50;;;26.80;55.50;;;;;;5091334;28;20031;-79
2021/08/04 11:07:09;;;;;;;4.18;1.90;;;26.90;59.90;;;;;;5091050;28;20042;-80
2021/08/04 11:09:46;;;;;;;3.85;1.50;;;27.10;54.00;;;;;;5092154;28;20515;-80
2021/08/04 11:12:22;;;;;;;3.63;1.40;;;27.30;54.00;;;;;;5091569;28;20491;-79
2021/08/04 11:14:48;;;;;;;3.47;1.73;;;27.40;56.90;;;;;;5094296;28;20098;-80
2021/08/04 11:17:16;;;;;;;5.18;2.58;;;27.40;59.00;;;;;;5094449;28;20032;-80
2021/08/04 11:20:04;;;;;;;5.95;3.40;;;27.20;58.90;;;;;;5094703;28;20035;-79
2021/08/04 11:22:39;;;;;;;4.88;2.72;;;26.70;57.60;;;;;;5097452;28;20020;-79
2021/08/04 11:25:12;;;;;;;3.30;1.60;;;26.20;57.90;;;;;;5094616;28;20392;-79
2021/08/04 11:27:44;;;;;;;5.03;2.20;;;26.20;61.00;;;;;;5097748;28;20401;-80
2021/08/04 11:30:30;;;;;;;4.78;1.73;;;26.50;57.20;;;;;;5104850;28;20091;-79
2021/08/04 11:33:29;;;;;;;4.25;1.70;;;27.00;62.50;;;;;;5113460;28;20024;-80
2021/08/04 11:36:14;;;;;;;;;;;27.20;61.20;;;;;;5109542;28;20032;-79
2021/08/04 11:39:02;;;;;;;2.65;1.58;;;27.00;61.10;;;;;;5106757;28;19903;-79
2021/08/04 11:41:46;;;;;;;3.30;2.03;;;26.50;62.50;;;;;;5099030;28;20198;-80
2021/08/04 11:44:24;;;;;;;6.57;2.67;;;26.50;64.10;;;;;;5094531;28;20024;-79
2021/08/04 11:47:09;;;;;;;5.38;3.35;;;26.60;60.50;;;;;;5094625;28;20020;-79
2021/08/04 11:49:36;;;;;;;3.88;1.92;;;26.40;58.90;;;;;;5095409;28;20028;-79
2021/08/04 11:52:06;;;;;;;3.40;1.75;;;26.40;59.20;;;;;;5094929;28;20035;-79
2021/08/04 11:54:35;;;;;;;4.35;1.40;;;26.80;59.50;;;;;;5095135;28;20016;-80
2021/08/04 11:57:02;;;;;;;2.80;1.30;;;27.00;62.90;;;;;;5094460;28;20027;-80
2021/08/04 11:59:28;;;;;;;4.00;2.10;;;27.40;63.30;;;;;;5094513;28;20024;-79
2021/08/04 12:01:56;;;;;;;4.30;1.77;;;27.60;59.90;;;;;;5094148;28;20025;-79
2021/08/04 12:04:22;;;;;;;4.18;1.80;;;27.80;59.20;;;;;;5094126;28;20058;-81
2021/08/04 12:07:18;;;;;;;5.82;3.22;;;27.80;56.90;;;;;;5094447;28;20108;-80
2021/08/04 12:09:44;;;;;;;6.45;2.80;;;28.00;55.80;;;;;;5098062;28;20500;-79
2021/08/04 12:12:19;;;;;;;3.78;2.08;;;28.10;51.50;;;;;;5094246;28;20028;-79
2021/08/04 12:14:47;;;;;;;3.78;1.95;;;28.10;52.10;;;;;;5094758;28;20463;-79
2021/08/04 12:17:21;;;;;;;4.88;2.42;;;28.20;52.30;;;;;;5093827;28;20036;-80
2021/08/04 12:19:48;;;;;;;3.17;1.35;;;28.40;52.30;;;;;;5093972;28;20056;-80
2021/08/04 12:22:20;;;;;;;5.13;2.00;;;28.30;53.50;;;;;;5094013;28;20043;-80
2021/08/04 12:24:51;;;;;;;3.55;1.75;;;28.30;53.60;;;;;;5103635;28;20024;-80
2021/08/04 12:27:47;;;;;;;3.67;2.00;;;28.40;56.00;;;;;;5099681;28;20024;-80
2021/08/04 12:30:17;;;;;;;3.47;1.52;;;28.50;53.70;;;;;;5093592;28;20073;-80
2021/08/04 12:33:07;;;;;;;1.90;1.13;;;27.90;58.20;;;;;;5093589;28;20487;-81
2021/08/04 12:36:02;;;;;;;4.15;1.65;;;27.30;61.00;;;;;;5094549;28;20128;-80
2021/08/04 12:38:31;;;;;;;1.90;0.98;;;27.10;62.60;;;;;;5094455;28;20016;-81
2021/08/04 12:40:57;;;;;;;3.70;1.88;;;27.20;62.30;;;;;;5095380;28;20058;-81
2021/08/04 12:43:45;;;;;;;4.15;1.90;;;27.40;60.70;;;;;;5094504;28;20418;-79
2021/08/04 12:46:11;;;;;;;3.10;1.70;;;27.50;61.60;;;;;;5099516;28;20123;-80
2021/08/04 12:48:41;;;;;;;1.75;1.02;;;27.80;59.00;;;;;;5106587;28;20031;-81
2021/08/04 12:51:15;;;;;;;5.22;2.90;;;27.90;62.20;;;;;;5101100;28;20024;-81
2021/08/04 12:53:42;;;;;;;2.80;1.48;;;27.60;55.50;;;;;;5093639;28;20027;-80